createdAt,value
2023-02-08T00:00:33.791Z,8.80
2023-02-08T00:03:00.279Z,8.18
2023-02-08T00:05:26.780Z,8.45
2023-02-08T00:07:53.188Z,9.32
2023-02-08T00:10:19.648Z,10.23
2023-02-08T00:12:46.303Z,9.35
2023-02-08T00:15:12.748Z,9.63
2023-02-08T00:17:39.341Z,9.77
2023-02-08T00:20:07.054Z,9.82
2023-02-08T00:22:33.690Z,10.63
2023-02-08T00:25:00.101Z,9.05
2023-02-08T00:27:26.629Z,9.07
2023-02-08T00:29:53.092Z,10.75
2023-02-08T00:32:19.524Z,10.20
2023-02-08T00:34:45.928Z,10.82
2023-02-08T00:37:12.376Z,9.65
2023-02-08T00:39:38.796Z,11.27
2023-02-08T00:42:08.225Z,11.07
2023-02-08T00:44:34.637Z,10.23
2023-02-08T00:47:01.028Z,10.85
2023-02-08T00:49:27.408Z,11.70
2023-02-08T00:51:53.805Z,10.80
2023-02-08T00:54:21.079Z,11.07
2023-02-08T00:56:47.760Z,10.00
2023-02-08T00:59:16.773Z,11.38
2023-02-08T01:01:43.268Z,10.77
2023-02-08T01:04:09.708Z,11.40
2023-02-08T01:06:36.128Z,11.55
2023-02-08T01:09:02.533Z,11.85
2023-02-08T01:11:29.023Z,12.05
2023-02-08T01:13:57.455Z,11.95
2023-02-08T01:16:25.256Z,11.30
2023-02-08T01:18:54.765Z,12.50
2023-02-08T01:21:22.390Z,11.02
2023-02-08T01:23:49.386Z,13.43
2023-02-08T01:26:16.642Z,12.38
2023-02-08T01:28:44.011Z,12.13
2023-02-08T01:31:12.994Z,11.77
2023-02-08T01:33:42.528Z,14.20
2023-02-08T01:36:09.268Z,12.57
2023-02-08T01:38:36.495Z,11.80
2023-02-08T01:41:03.843Z,12.45
2023-02-08T01:43:53.246Z,13.13
2023-02-08T01:46:19.668Z,12.93
2023-02-08T01:48:46.457Z,13.10
2023-02-08T01:51:15.269Z,12.88
2023-02-08T01:53:45.049Z,12.52
2023-02-08T01:56:17.752Z,13.85
2023-02-08T01:58:49.052Z,12.80
2023-02-08T02:01:16.079Z,12.30
2023-02-08T02:03:44.603Z,14.98
2023-02-08T02:06:17.395Z,11.95
2023-02-08T02:09:07.233Z,14.77
2023-02-08T02:11:33.599Z,13.60
2023-02-08T02:14:00.728Z,13.73
2023-02-08T02:16:27.131Z,13.55
2023-02-08T02:18:53.654Z,13.70
2023-02-08T02:21:43.042Z,14.27
2023-02-08T02:24:44.863Z,14.75
2023-02-08T02:27:20.339Z,13.77
2023-02-08T02:29:52.784Z,15.45
2023-02-08T02:32:40.743Z,14.68
2023-02-08T02:35:10.310Z,12.93
2023-02-08T02:37:44.351Z,15.60
2023-02-08T02:40:16.693Z,13.75
2023-02-08T02:43:11.821Z,15.50
2023-02-08T02:45:49.806Z,15.82
2023-02-08T02:48:25.727Z,15.65
2023-02-08T02:50:55.335Z,14.18
2023-02-08T02:53:40.528Z,13.35
2023-02-08T02:56:10.115Z,14.43
2023-02-08T02:58:38.512Z,16.13
2023-02-08T03:01:05.053Z,13.65
2023-02-08T03:03:33.255Z,14.55
2023-02-08T03:06:22.743Z,14.95
2023-02-08T03:08:55.442Z,14.80
2023-02-08T03:11:32.695Z,15.02
2023-02-08T03:14:14.471Z,14.63
2023-02-08T03:17:03.931Z,15.07
2023-02-08T03:19:33.107Z,13.88
2023-02-08T03:22:06.867Z,16.27
2023-02-08T03:24:38.341Z,12.98
2023-02-08T03:27:08.339Z,13.52
2023-02-08T03:29:45.007Z,13.90
2023-02-08T03:32:19.336Z,13.77
2023-02-08T03:34:51.417Z,14.02
2023-02-08T03:37:26.457Z,14.27
2023-02-08T03:39:56.256Z,14.02
2023-02-08T03:42:25.135Z,12.40
2023-02-08T03:44:53.331Z,14.90
2023-02-08T03:47:22.175Z,13.20
2023-02-08T03:49:52.040Z,13.57
2023-02-08T03:52:18.947Z,13.13
2023-02-08T03:54:49.530Z,13.52
2023-02-08T03:57:22.853Z,12.20
2023-02-08T03:59:53.964Z,13.30
2023-02-08T04:02:21.810Z,12.82
2023-02-08T04:04:49.853Z,14.38
2023-02-08T04:07:17.426Z,11.65
2023-02-08T04:09:46.004Z,11.73
2023-02-08T04:12:12.614Z,11.60
2023-02-08T04:14:39.005Z,14.05
2023-02-08T04:17:05.422Z,11.77
2023-02-08T04:19:31.890Z,11.90
2023-02-08T04:21:58.302Z,10.18
2023-02-08T04:24:24.747Z,11.93
2023-02-08T04:26:51.181Z,12.98
2023-02-08T04:29:17.576Z,11.70
2023-02-08T04:31:44.073Z,11.32
2023-02-08T04:34:10.542Z,11.48
2023-02-08T04:36:37.052Z,11.48
2023-02-08T04:39:03.516Z,11.77
2023-02-08T04:41:29.961Z,12.00
2023-02-08T04:43:56.340Z,12.40
2023-02-08T04:46:22.825Z,11.50
2023-02-08T04:48:49.681Z,12.00
2023-02-08T04:51:18.174Z,13.18
2023-02-08T04:53:44.671Z,12.60
2023-02-08T04:56:11.041Z,11.75
2023-02-08T04:58:37.577Z,13.35
2023-02-08T05:01:07.541Z,12.35
2023-02-08T05:03:34.129Z,13.13
2023-02-08T05:06:00.922Z,14.57
2023-02-08T05:08:29.339Z,12.30
2023-02-08T05:10:55.754Z,12.73
2023-02-08T05:13:22.141Z,15.15
2023-02-08T05:15:48.606Z,12.90
2023-02-08T05:18:15.001Z,12.35
2023-02-08T05:20:41.655Z,13.32
2023-02-08T05:23:08.326Z,14.70
2023-02-08T05:25:34.728Z,11.70
2023-02-08T05:28:01.266Z,13.30
2023-02-08T05:30:27.674Z,15.05
2023-02-08T05:32:54.063Z,13.85
2023-02-08T05:35:20.463Z,13.80
2023-02-08T05:37:46.836Z,13.13
2023-02-08T05:40:13.333Z,12.90
2023-02-08T05:42:39.778Z,15.38
2023-02-08T05:45:06.349Z,14.68
2023-02-08T05:47:32.757Z,15.55
2023-02-08T05:50:01.546Z,15.85
2023-02-08T05:52:28.034Z,15.93
2023-02-08T05:54:54.432Z,14.75
2023-02-08T05:57:20.829Z,15.10
2023-02-08T05:59:47.211Z,16.23
2023-02-08T06:02:14.195Z,14.85
2023-02-08T06:04:40.618Z,15.07
2023-02-08T06:07:06.981Z,14.45
2023-02-08T06:09:33.367Z,15.65
2023-02-08T06:11:59.794Z,13.80
2023-02-08T06:14:26.188Z,15.23
2023-02-08T06:16:52.727Z,16.02
2023-02-08T06:19:19.183Z,14.93
2023-02-08T06:21:45.627Z,15.68
2023-02-08T06:24:12.084Z,15.07
2023-02-08T06:26:38.546Z,14.85
2023-02-08T06:29:04.964Z,15.32
2023-02-08T06:31:31.444Z,14.05
2023-02-08T06:33:57.872Z,13.50
2023-02-08T06:36:24.462Z,13.40
2023-02-08T06:38:51.406Z,18.08
2023-02-08T06:41:17.980Z,14.35
2023-02-08T06:43:44.472Z,16.52
2023-02-08T06:46:11.066Z,15.98
2023-02-08T06:48:37.861Z,16.38
2023-02-08T06:51:04.350Z,15.70
2023-02-08T06:53:30.908Z,15.50
2023-02-08T06:55:57.364Z,16.50
2023-02-08T06:58:23.803Z,16.48
2023-02-08T07:00:50.429Z,16.08
2023-02-08T07:03:17.716Z,16.17
2023-02-08T07:05:58.735Z,15.57
2023-02-08T07:08:30.550Z,15.57
2023-02-08T07:10:56.926Z,15.70
2023-02-08T07:13:23.450Z,15.27
2023-02-08T07:15:49.841Z,16.02
2023-02-08T07:18:16.344Z,15.50
2023-02-08T07:20:42.704Z,14.75
2023-02-08T07:23:09.239Z,14.68
2023-02-08T07:25:35.696Z,16.08
2023-02-08T07:28:02.786Z,16.85
2023-02-08T07:30:29.404Z,17.08
2023-02-08T07:32:55.860Z,17.02
2023-02-08T07:35:22.363Z,17.52
2023-02-08T07:37:48.785Z,15.48
2023-02-08T07:40:15.312Z,16.75
2023-02-08T07:42:41.753Z,14.88
2023-02-08T07:45:08.323Z,18.13
2023-02-08T07:47:34.751Z,17.80
2023-02-08T07:50:01.154Z,18.10
2023-02-08T07:52:27.532Z,18.25
2023-02-08T07:54:53.945Z,16.08
2023-02-08T07:57:22.069Z,16.73
2023-02-08T07:59:48.653Z,15.85
2023-02-08T08:02:15.481Z,19.15
2023-02-08T08:04:42.051Z,16.90
2023-02-08T08:07:08.434Z,17.38
2023-02-08T08:09:34.836Z,16.65
2023-02-08T08:12:02.212Z,17.63
2023-02-08T08:14:28.626Z,18.90
2023-02-08T08:16:55.033Z,17.92
2023-02-08T08:19:21.467Z,17.35
2023-02-08T08:21:47.916Z,17.23
2023-02-08T08:24:14.315Z,16.92
2023-02-08T08:26:40.739Z,16.98
2023-02-08T08:29:07.180Z,16.38
2023-02-08T08:31:33.673Z,18.05
2023-02-08T08:34:00.258Z,16.52
2023-02-08T08:36:26.751Z,16.33
2023-02-08T08:38:53.302Z,16.27
2023-02-08T08:41:22.204Z,16.00
2023-02-08T08:43:48.852Z,17.63
2023-02-08T08:46:16.863Z,16.05
2023-02-08T08:48:43.628Z,17.30
2023-02-08T08:51:10.109Z,17.50
2023-02-08T08:53:37.159Z,16.80
2023-02-08T08:56:04.072Z,18.52
2023-02-08T08:58:30.742Z,17.70
2023-02-08T09:00:58.824Z,17.58
2023-02-08T09:03:25.458Z,16.73
2023-02-08T09:05:51.884Z,17.35
2023-02-08T09:08:18.473Z,17.38
2023-02-08T09:10:44.980Z,16.98
2023-02-08T09:13:11.852Z,15.98
2023-02-08T09:15:39.131Z,17.05
2023-02-08T09:18:05.562Z,18.02
2023-02-08T09:20:32.052Z,18.60
2023-02-08T09:22:58.924Z,16.10
2023-02-08T09:25:25.360Z,17.70
2023-02-08T09:27:51.809Z,17.58
2023-02-08T09:30:18.318Z,15.93
2023-02-08T09:32:45.407Z,16.55
2023-02-08T09:35:13.397Z,19.00
2023-02-08T09:37:39.844Z,16.38
2023-02-08T09:40:06.498Z,17.90
2023-02-08T09:42:38.020Z,18.77
2023-02-08T09:45:27.710Z,17.67
2023-02-08T09:48:16.528Z,15.60
2023-02-08T09:50:45.619Z,17.85
2023-02-08T09:53:11.992Z,16.75
2023-02-08T09:55:41.319Z,18.17
2023-02-08T09:58:17.386Z,17.42
2023-02-08T10:00:45.782Z,17.75
2023-02-08T10:03:31.065Z,18.15
2023-02-08T10:05:59.582Z,18.20
2023-02-08T10:08:34.905Z,18.70
2023-02-08T10:11:07.827Z,19.73
2023-02-08T10:13:53.591Z,17.42
2023-02-08T10:16:20.055Z,18.60
2023-02-08T10:19:05.294Z,18.42
2023-02-08T10:21:50.508Z,19.70
2023-02-08T10:24:28.503Z,19.15
2023-02-08T10:26:54.866Z,16.75
2023-02-08T10:29:42.783Z,18.52
2023-02-08T10:32:18.843Z,17.30
2023-02-08T10:34:52.563Z,17.20
2023-02-08T10:37:27.712Z,17.52
2023-02-08T10:39:54.655Z,18.83
2023-02-08T10:42:22.618Z,20.17
2023-02-08T10:45:24.178Z,20.42
2023-02-08T10:48:00.030Z,18.35
2023-02-08T10:50:35.611Z,18.65
2023-02-08T10:53:02.689Z,17.90
2023-02-08T10:55:30.128Z,17.77
2023-02-08T10:58:00.815Z,19.65
2023-02-08T11:00:29.000Z,17.73
2023-02-08T11:02:57.542Z,17.08
2023-02-08T11:05:25.245Z,17.33
2023-02-08T11:08:07.149Z,16.25
2023-02-08T11:10:34.254Z,14.40
2023-02-08T11:13:03.789Z,16.55
2023-02-08T11:15:34.024Z,16.05
2023-02-08T11:18:03.803Z,15.07
2023-02-08T11:20:40.067Z,17.00
2023-02-08T11:23:18.828Z,15.90
2023-02-08T11:25:45.383Z,16.33
2023-02-08T11:28:30.871Z,15.77
2023-02-08T11:31:02.195Z,17.13
2023-02-08T11:33:29.745Z,17.10
2023-02-08T11:36:01.373Z,15.93
2023-02-08T11:38:28.349Z,16.02
2023-02-08T11:40:56.721Z,16.38
2023-02-08T11:43:24.981Z,16.13
2023-02-08T11:45:51.769Z,17.13
2023-02-08T11:48:30.259Z,16.98
2023-02-08T11:50:58.890Z,16.52
2023-02-08T11:53:29.012Z,17.17
2023-02-08T11:56:03.179Z,16.30
2023-02-08T11:58:30.773Z,15.98
2023-02-08T12:00:58.511Z,17.00
2023-02-08T12:03:38.404Z,13.88
2023-02-08T12:06:04.856Z,18.30
2023-02-08T12:08:37.323Z,15.70
2023-02-08T12:11:26.163Z,16.45
2023-02-08T12:13:57.487Z,17.13
2023-02-08T12:16:34.221Z,15.10
2023-02-08T12:19:01.243Z,15.98
2023-02-08T12:21:33.526Z,15.82
2023-02-08T12:24:06.062Z,17.30
2023-02-08T12:26:37.400Z,15.82
2023-02-08T12:29:03.848Z,15.68
2023-02-08T12:31:33.344Z,16.08
2023-02-08T12:34:05.836Z,15.05
2023-02-08T12:36:38.320Z,13.40
2023-02-08T12:39:44.086Z,14.02
2023-02-08T12:42:21.594Z,13.18
2023-02-08T12:44:48.562Z,14.07
2023-02-08T12:47:23.991Z,13.00
2023-02-08T12:49:50.362Z,13.90
2023-02-08T12:52:19.468Z,13.57
2023-02-08T12:54:52.577Z,12.80
2023-02-08T12:57:21.157Z,15.30
2023-02-08T12:59:49.629Z,14.07
2023-02-08T13:02:23.263Z,13.90
2023-02-08T13:04:52.132Z,12.95
2023-02-08T13:07:21.050Z,13.13
2023-02-08T13:09:54.597Z,13.63
2023-02-08T13:12:25.770Z,13.70
2023-02-08T13:14:52.193Z,11.60
2023-02-08T13:17:21.278Z,11.65
2023-02-08T13:20:05.081Z,10.52
2023-02-08T13:22:34.554Z,10.52
2023-02-08T13:25:07.621Z,11.82
2023-02-08T13:27:34.572Z,12.30
2023-02-08T13:30:01.501Z,11.57
2023-02-08T13:32:43.556Z,12.65
2023-02-08T13:35:15.499Z,13.30
2023-02-08T13:37:42.118Z,11.90
2023-02-08T13:40:17.490Z,13.88
2023-02-08T13:42:50.729Z,12.43
2023-02-08T13:45:37.588Z,13.07
2023-02-08T13:48:05.419Z,14.07
2023-02-08T13:50:34.866Z,13.75
2023-02-08T13:53:02.011Z,14.38
2023-02-08T13:55:36.218Z,16.77
2023-02-08T13:58:13.493Z,14.50
2023-02-08T14:00:55.154Z,15.45
2023-02-08T14:03:30.074Z,16.42
2023-02-08T14:05:59.191Z,15.52
2023-02-08T14:08:35.183Z,16.90
2023-02-08T14:11:20.468Z,16.73
2023-02-08T14:13:55.550Z,16.02
2023-02-08T14:16:21.926Z,15.88
2023-02-08T14:18:55.536Z,14.77
2023-02-08T14:21:43.101Z,16.00
2023-02-08T14:24:34.209Z,13.85
2023-02-08T14:27:08.581Z,15.73
2023-02-08T14:29:36.075Z,15.10
2023-02-08T14:32:02.590Z,14.75
2023-02-08T14:34:34.755Z,14.25
2023-02-08T14:37:03.985Z,14.02
2023-02-08T14:39:33.499Z,15.75
2023-02-08T14:42:03.851Z,14.13
2023-02-08T14:44:39.268Z,14.50
2023-02-08T14:47:35.835Z,14.80
2023-02-08T14:50:19.742Z,16.42
2023-02-08T14:52:56.922Z,15.82
2023-02-08T14:55:27.571Z,15.90
2023-02-08T14:58:01.016Z,15.85
2023-02-08T15:00:30.092Z,14.60
2023-02-08T15:02:58.856Z,15.10
2023-02-08T15:05:27.772Z,14.23
2023-02-08T15:07:55.887Z,14.27
2023-02-08T15:10:23.295Z,14.45
2023-02-08T15:12:51.434Z,15.23
2023-02-08T15:15:26.209Z,14.15
2023-02-08T15:17:53.501Z,14.93
2023-02-08T15:20:24.724Z,14.98
2023-02-08T15:23:02.207Z,13.65
2023-02-08T15:25:30.266Z,12.45
2023-02-08T15:28:04.026Z,14.23
2023-02-08T15:30:38.051Z,13.57
2023-02-08T15:33:09.196Z,13.23
2023-02-08T15:35:36.004Z,15.15
2023-02-08T15:38:05.473Z,13.52
2023-02-08T15:40:33.059Z,14.13
2023-02-08T15:43:06.140Z,13.82
2023-02-08T15:45:32.729Z,13.57
2023-02-08T15:47:59.967Z,14.27
2023-02-08T15:50:27.352Z,15.43
2023-02-08T15:53:02.132Z,15.18
2023-02-08T15:55:32.235Z,15.40
2023-02-08T15:58:28.755Z,16.98
2023-02-08T16:00:57.162Z,14.50
2023-02-08T16:03:24.227Z,15.70
2023-02-08T16:05:56.443Z,14.95
2023-02-08T16:08:26.651Z,17.20
2023-02-08T16:10:59.287Z,17.50
2023-02-08T16:13:27.509Z,16.20
2023-02-08T16:16:17.328Z,17.27
2023-02-08T16:18:50.168Z,18.33
2023-02-08T16:21:21.667Z,18.67
2023-02-08T16:23:49.548Z,20.33
2023-02-08T16:26:21.041Z,20.25
2023-02-08T16:29:01.243Z,20.88
2023-02-08T16:31:30.158Z,22.63
2023-02-08T16:33:58.138Z,23.15
2023-02-08T16:36:25.852Z,22.95
2023-02-08T16:39:10.882Z,23.27
2023-02-08T16:42:15.209Z,24.25
2023-02-08T16:44:56.785Z,21.85
2023-02-08T16:47:27.966Z,24.38
2023-02-08T16:49:54.402Z,23.33
2023-02-08T16:52:20.800Z,23.05
2023-02-08T16:54:47.375Z,22.83
2023-02-08T16:57:13.802Z,24.80
2023-02-08T16:59:40.222Z,24.77
2023-02-08T17:02:10.583Z,25.23
2023-02-08T17:04:37.078Z,24.60
2023-02-08T17:07:03.684Z,25.10
2023-02-08T17:09:30.112Z,25.92
2023-02-08T17:11:56.520Z,24.10
2023-02-08T17:14:22.921Z,23.75
2023-02-08T17:16:49.365Z,24.25
2023-02-08T17:19:17.081Z,23.98
2023-02-08T17:21:43.647Z,25.30
2023-02-08T17:24:10.164Z,25.35
2023-02-08T17:26:42.412Z,23.98
2023-02-08T17:29:10.743Z,23.77
2023-02-08T17:31:37.302Z,25.25
2023-02-08T17:34:06.616Z,25.50
2023-02-08T17:36:34.185Z,24.15
2023-02-08T17:39:00.726Z,23.75
2023-02-08T17:41:27.285Z,24.92
2023-02-08T17:43:54.614Z,24.67
2023-02-08T17:46:22.732Z,23.70
2023-02-08T17:48:49.214Z,22.60
2023-02-08T17:51:17.044Z,23.00
2023-02-08T17:53:43.864Z,24.40
2023-02-08T17:56:11.218Z,22.88
2023-02-08T17:58:37.946Z,25.30
2023-02-08T18:01:04.884Z,23.45
2023-02-08T18:03:31.569Z,24.10
2023-02-08T18:05:58.682Z,21.08
2023-02-08T18:08:25.180Z,22.35
2023-02-08T18:10:51.710Z,23.08
2023-02-08T18:13:18.309Z,21.45
2023-02-08T18:15:45.125Z,20.58
2023-02-08T18:18:11.708Z,21.60
2023-02-08T18:20:42.809Z,22.67
2023-02-08T18:23:09.211Z,21.45
2023-02-08T18:25:35.997Z,19.33
2023-02-08T18:28:02.485Z,21.58
2023-02-08T18:30:28.958Z,20.38
2023-02-08T18:32:55.439Z,20.30
2023-02-08T18:35:22.604Z,20.63
2023-02-08T18:37:51.522Z,17.48
2023-02-08T18:40:18.263Z,21.02
2023-02-08T18:42:44.736Z,20.58
2023-02-08T18:45:11.289Z,19.58
2023-02-08T18:47:39.291Z,19.95
2023-02-08T18:50:06.351Z,18.63
2023-02-08T18:52:32.791Z,19.50
2023-02-08T18:54:59.227Z,18.25
2023-02-08T18:57:25.713Z,17.60
2023-02-08T18:59:53.978Z,19.98
2023-02-08T19:02:21.822Z,20.13
2023-02-08T19:04:48.368Z,18.83
2023-02-08T19:07:14.815Z,18.17
2023-02-08T19:09:41.675Z,19.23
2023-02-08T19:12:09.155Z,17.92
2023-02-08T19:14:35.564Z,17.40
2023-02-08T19:17:02.562Z,17.48
2023-02-08T19:19:29.431Z,17.85
2023-02-08T19:21:55.918Z,17.55
2023-02-08T19:24:22.398Z,16.33
2023-02-08T19:26:48.942Z,17.73
2023-02-08T19:29:16.922Z,16.98
2023-02-08T19:31:43.867Z,15.95
2023-02-08T19:34:10.687Z,16.05
2023-02-08T19:36:38.851Z,14.60
2023-02-08T19:39:06.444Z,14.32
2023-02-08T19:41:34.947Z,15.88
2023-02-08T19:44:04.667Z,14.10
2023-02-08T19:46:33.011Z,15.15
2023-02-08T19:49:00.696Z,13.68
2023-02-08T19:51:28.095Z,14.07
2023-02-08T19:53:56.883Z,13.90
2023-02-08T19:56:23.406Z,13.30
2023-02-08T19:58:49.823Z,13.07
2023-02-08T20:01:17.494Z,12.70
2023-02-08T20:03:44.260Z,13.23
2023-02-08T20:06:14.683Z,11.88
2023-02-08T20:08:41.201Z,11.20
2023-02-08T20:11:15.078Z,12.70
2023-02-08T20:13:41.479Z,11.75
2023-02-08T20:16:07.973Z,12.90
2023-02-08T20:18:34.407Z,11.32
2023-02-08T20:21:02.051Z,10.68
2023-02-08T20:23:28.676Z,11.65
2023-02-08T20:26:05.469Z,11.48
2023-02-08T20:28:31.892Z,11.55
2023-02-08T20:31:00.086Z,11.32
2023-02-08T20:33:26.539Z,11.02
2023-02-08T20:35:52.922Z,12.20
2023-02-08T20:38:19.345Z,11.50
2023-02-08T20:40:45.972Z,13.15
2023-02-08T20:43:12.370Z,11.38
2023-02-08T20:45:40.066Z,12.05
2023-02-08T20:48:06.624Z,13.98
2023-02-08T20:50:34.073Z,11.00
2023-02-08T20:53:00.616Z,11.93
2023-02-08T20:55:27.052Z,11.73
2023-02-08T20:57:53.432Z,10.77
2023-02-08T21:00:19.978Z,11.70
2023-02-08T21:02:46.518Z,12.05
2023-02-08T21:05:13.026Z,11.85
2023-02-08T21:07:40.381Z,10.85
2023-02-08T21:10:07.156Z,12.43
2023-02-08T21:12:33.586Z,11.55
2023-02-08T21:14:59.981Z,11.98
2023-02-08T21:17:26.442Z,11.57
2023-02-08T21:19:52.888Z,13.60
2023-02-08T21:22:19.324Z,12.20
2023-02-08T21:24:45.777Z,12.80
2023-02-08T21:27:12.959Z,12.60
2023-02-08T21:29:39.356Z,12.30
2023-02-08T21:32:05.895Z,12.57
2023-02-08T21:34:32.331Z,11.25
2023-02-08T21:36:58.694Z,12.98
2023-02-08T21:39:25.189Z,13.40
2023-02-08T21:41:51.910Z,13.57
2023-02-08T21:44:18.513Z,12.55
2023-02-08T21:46:44.966Z,11.73
2023-02-08T21:49:29.804Z,11.85
2023-02-08T21:52:14.690Z,12.27
2023-02-08T21:54:46.824Z,11.13
2023-02-08T21:57:23.701Z,12.43
2023-02-08T21:59:51.262Z,11.48
2023-02-08T22:02:21.978Z,12.00
2023-02-08T22:07:41.632Z,11.18
2023-02-08T22:10:09.025Z,11.20
2023-02-08T22:12:35.415Z,12.02
2023-02-08T22:15:01.851Z,10.75
2023-02-08T22:17:28.235Z,9.48
2023-02-08T22:19:54.632Z,10.00
2023-02-08T22:22:21.041Z,10.00
2023-02-08T22:24:47.476Z,11.38
2023-02-08T22:27:13.880Z,9.40
2023-02-08T22:29:40.285Z,9.90
2023-02-08T22:32:08.204Z,10.25
2023-02-08T22:34:34.611Z,9.38
2023-02-08T22:37:03.781Z,9.25
2023-02-08T22:39:31.096Z,10.02
2023-02-08T22:41:58.056Z,8.95
2023-02-08T22:44:24.506Z,10.32
2023-02-08T22:46:50.942Z,9.90
2023-02-08T22:49:17.415Z,9.25
2023-02-08T22:51:43.873Z,9.00
2023-02-08T22:54:10.230Z,9.02
2023-02-08T22:56:36.627Z,9.50
2023-02-08T22:59:03.009Z,10.32
2023-02-08T23:01:29.435Z,9.77
2023-02-08T23:03:55.841Z,10.77
2023-02-08T23:06:22.225Z,9.75
2023-02-08T23:08:48.832Z,10.07
2023-02-08T23:11:15.423Z,8.88
2023-02-08T23:13:41.829Z,9.93
2023-02-08T23:16:11.209Z,9.68
2023-02-08T23:18:37.694Z,10.23
2023-02-08T23:21:07.812Z,9.68
2023-02-08T23:23:34.221Z,9.65
2023-02-08T23:26:03.438Z,10.73
2023-02-08T23:28:33.369Z,11.13
2023-02-08T23:30:59.923Z,10.75
2023-02-08T23:33:26.401Z,9.85
2023-02-08T23:35:52.846Z,9.75
2023-02-08T23:38:19.228Z,10.07
2023-02-08T23:40:45.871Z,9.85
2023-02-08T23:43:12.435Z,11.00
2023-02-08T23:45:38.822Z,10.93
2023-02-08T23:48:05.317Z,10.35
2023-02-08T23:50:31.756Z,9.18
2023-02-08T23:52:58.237Z,11.13
2023-02-08T23:55:24.878Z,9.68
2023-02-08T23:57:51.272Z,9.98
